EGHH/BOH METAR and TAF weather

Enter ICAO airport designator
Station Type Date Time Source
EGHH METAR 2019/12/12 11:50 UTC NOAA

EGHH 121150Z 21014KT 3500 RA BR SCT007 BKN010 10/09 Q0986


Station Type Date Time Source
EGHH Decoded METAR 2019/12/12 11:50 UTC NOAA

Bournemouth Airport, United Kingdom (EGHH) 50-47N 001-50W 0M
Dec 12, 2019 - 06:50 AM EST / 2019.12.12 1150 UTC
Wind: from the SSW (210 degrees) at 16 MPH (14 KT):0
Visibility: 2 mile(s):0
Sky conditions: mostly cloudy
Weather: rain; mist
Temperature: 50 F (10 C)
Dew Point: 48 F (9 C)
Relative Humidity: 93%
Pressure (altimeter): 29.12 in. Hg (0986 hPa)
ob: EGHH 121150Z 21014KT 3500 RA BR SCT007 BKN010 10/09 Q0986
cycle: 12

Station Type Date Time Source
EGHH TAF 2013/12/01 21:21 UTC NOAA

TAF TAF EGHH 010016Z 3021/0106 CNL

Example: see airport list